createdAt,value
2023-03-25T00:00:19.081Z,8.89
2023-03-25T00:02:49.462Z,8.90
2023-03-25T00:05:19.757Z,8.93
2023-03-25T00:07:50.636Z,8.96
2023-03-25T00:10:18.666Z,8.94
2023-03-25T00:12:46.018Z,8.95
2023-03-25T00:15:13.526Z,8.98
2023-03-25T00:17:40.796Z,8.98
2023-03-25T00:20:10.217Z,9.01
2023-03-25T00:22:40.984Z,9.03
2023-03-25T00:25:20.384Z,9.03
2023-03-25T00:27:48.742Z,9.04
2023-03-25T00:30:18.050Z,9.05
2023-03-25T00:32:49.983Z,9.06
2023-03-25T00:35:21.153Z,9.05
2023-03-25T00:37:57.450Z,9.05
2023-03-25T00:40:25.980Z,9.04
2023-03-25T00:42:53.178Z,9.04
2023-03-25T00:45:20.456Z,9.05
2023-03-25T00:47:47.699Z,9.04
2023-03-25T00:50:15.358Z,9.01
2023-03-25T00:52:42.693Z,9.02
2023-03-25T00:55:10.566Z,9.00
2023-03-25T00:57:37.774Z,8.96
2023-03-25T01:00:08.687Z,8.90
2023-03-25T01:02:36.365Z,8.82
2023-03-25T01:05:04.452Z,8.73
2023-03-25T01:07:32.693Z,8.68
2023-03-25T01:10:07.195Z,8.64
2023-03-25T01:12:34.714Z,8.61
2023-03-25T01:15:03.638Z,8.60
2023-03-25T01:17:31.511Z,8.61
2023-03-25T01:19:59.021Z,8.59
2023-03-25T01:22:26.290Z,8.61
2023-03-25T01:24:53.533Z,8.58
2023-03-25T01:27:20.844Z,8.58
2023-03-25T01:29:48.076Z,8.57
2023-03-25T01:32:15.434Z,8.51
2023-03-25T01:34:42.961Z,8.48
2023-03-25T01:37:10.297Z,8.45
2023-03-25T01:39:37.804Z,8.41
2023-03-25T01:42:05.973Z,8.39
2023-03-25T01:44:34.296Z,8.35
2023-03-25T01:47:05.344Z,8.33
2023-03-25T01:49:38.889Z,8.31
2023-03-25T01:52:12.816Z,8.29
2023-03-25T01:54:41.866Z,8.29
2023-03-25T01:57:13.203Z,8.28
2023-03-25T01:59:41.603Z,8.25
2023-03-25T02:02:10.535Z,8.22
2023-03-25T02:04:59.162Z,8.20
2023-03-25T02:07:33.109Z,8.18
2023-03-25T02:10:05.783Z,8.15
2023-03-25T02:12:33.444Z,8.11
2023-03-25T02:15:03.841Z,8.08
2023-03-25T02:18:16.223Z,8.05
2023-03-25T02:20:55.654Z,8.03
2023-03-25T02:23:58.031Z,8.01
2023-03-25T02:27:05.300Z,7.99
2023-03-25T02:29:59.183Z,7.95
2023-03-25T02:32:52.924Z,7.91
2023-03-25T02:35:50.081Z,7.90
2023-03-25T02:38:31.617Z,7.89
2023-03-25T02:41:18.212Z,7.90
2023-03-25T02:44:02.163Z,7.89
2023-03-25T02:46:33.646Z,7.87
2023-03-25T02:49:10.814Z,7.86
2023-03-25T02:51:46.234Z,7.87
2023-03-25T02:54:16.762Z,7.87
2023-03-25T02:56:47.665Z,7.85
2023-03-25T02:59:17.731Z,7.85
2023-03-25T03:01:50.481Z,7.84
2023-03-25T03:04:19.060Z,7.83
2023-03-25T03:06:46.322Z,7.81
2023-03-25T03:09:23.045Z,7.82
2023-03-25T03:12:31.811Z,7.83
2023-03-25T03:15:16.318Z,7.84
2023-03-25T03:18:09.900Z,7.85
2023-03-25T03:20:43.254Z,7.83
2023-03-25T03:23:28.385Z,7.84
2023-03-25T03:26:30.001Z,7.84
2023-03-25T03:29:00.955Z,7.86
2023-03-25T03:32:05.595Z,7.86
2023-03-25T03:34:45.237Z,7.88
2023-03-25T03:37:22.192Z,7.90
2023-03-25T03:39:52.030Z,7.91
2023-03-25T03:42:29.791Z,7.91
2023-03-25T03:45:03.377Z,7.92
2023-03-25T03:47:36.676Z,7.94
2023-03-25T03:50:14.341Z,7.95
2023-03-25T03:53:04.494Z,7.94
2023-03-25T03:55:43.712Z,7.97
2023-03-25T03:58:30.270Z,7.96
2023-03-25T04:01:11.711Z,7.95
2023-03-25T04:04:07.662Z,7.95
2023-03-25T04:06:42.155Z,7.95
2023-03-25T04:09:34.697Z,7.95
2023-03-25T04:12:27.317Z,7.94
2023-03-25T04:15:03.817Z,7.92
2023-03-25T04:17:33.134Z,7.91
2023-03-25T04:20:02.006Z,7.89
2023-03-25T04:22:29.611Z,7.86
2023-03-25T04:25:02.507Z,7.84
2023-03-25T04:27:32.786Z,7.81
2023-03-25T04:30:04.088Z,7.80
2023-03-25T04:32:31.404Z,7.81
2023-03-25T04:34:58.751Z,7.79
2023-03-25T04:37:27.812Z,7.78
2023-03-25T04:39:56.247Z,7.75
2023-03-25T04:42:25.834Z,7.73
2023-03-25T04:44:53.089Z,7.71
2023-03-25T04:47:25.345Z,7.69
2023-03-25T04:49:52.662Z,7.70
2023-03-25T04:52:19.862Z,7.70
2023-03-25T04:54:47.182Z,7.69
2023-03-25T04:57:15.390Z,7.71
2023-03-25T04:59:42.804Z,7.70
2023-03-25T05:02:13.612Z,7.70
2023-03-25T05:04:47.903Z,7.70
2023-03-25T05:07:16.707Z,7.70
2023-03-25T05:09:44.135Z,7.69
2023-03-25T05:12:11.650Z,7.67
2023-03-25T05:14:39.010Z,7.65
2023-03-25T05:17:06.153Z,7.64
2023-03-25T05:19:35.279Z,7.61
2023-03-25T05:22:04.737Z,7.60
2023-03-25T05:24:32.092Z,7.58
2023-03-25T05:27:05.449Z,7.56
2023-03-25T05:29:34.123Z,7.55
2023-03-25T05:32:05.535Z,7.57
2023-03-25T05:34:33.488Z,7.57
2023-03-25T05:37:02.779Z,7.59
2023-03-25T05:39:29.970Z,7.58
2023-03-25T05:42:03.379Z,7.59
2023-03-25T05:44:30.611Z,7.60
2023-03-25T05:47:02.787Z,7.59
2023-03-25T05:49:30.032Z,7.59
2023-03-25T05:51:57.255Z,7.60
2023-03-25T05:54:28.616Z,7.61
2023-03-25T05:56:56.116Z,7.61
2023-03-25T05:59:23.475Z,7.61
2023-03-25T06:01:50.652Z,7.62
2023-03-25T06:04:17.891Z,7.63
2023-03-25T06:06:45.116Z,7.64
2023-03-25T06:09:12.359Z,7.63
2023-03-25T06:11:39.582Z,7.63
2023-03-25T06:14:07.641Z,7.64
2023-03-25T06:16:35.706Z,7.65
2023-03-25T06:19:03.787Z,7.64
2023-03-25T06:21:34.695Z,7.64
2023-03-25T06:24:06.032Z,7.66
2023-03-25T06:26:33.330Z,7.69
2023-03-25T06:29:05.580Z,7.72
2023-03-25T06:31:33.929Z,7.78
2023-03-25T06:34:03.591Z,7.79
2023-03-25T06:36:31.526Z,7.83
2023-03-25T06:38:58.838Z,7.85
2023-03-25T06:41:28.734Z,7.89
2023-03-25T06:44:25.047Z,7.93
2023-03-25T06:47:30.822Z,7.95
2023-03-25T06:49:58.220Z,7.98
2023-03-25T06:52:25.588Z,7.99
2023-03-25T06:54:52.820Z,8.02
2023-03-25T06:57:19.996Z,8.06
2023-03-25T06:59:48.357Z,8.02
2023-03-25T07:02:15.801Z,7.89
2023-03-25T07:04:42.990Z,7.76
2023-03-25T07:07:10.517Z,7.58
2023-03-25T07:09:37.789Z,7.52
2023-03-25T07:12:06.990Z,7.46
2023-03-25T07:14:36.174Z,7.46
2023-03-25T07:17:03.473Z,7.51
2023-03-25T07:19:31.038Z,7.58
2023-03-25T07:21:58.345Z,7.68
2023-03-25T07:24:25.726Z,7.78
2023-03-25T07:26:52.912Z,7.85
2023-03-25T07:29:23.614Z,7.91
2023-03-25T07:31:51.019Z,7.98
2023-03-25T07:34:18.266Z,8.06
2023-03-25T07:36:45.646Z,8.11
2023-03-25T07:39:15.569Z,8.29
2023-03-25T07:41:43.190Z,8.51
2023-03-25T07:44:21.444Z,8.68
2023-03-25T07:46:50.198Z,8.74
2023-03-25T07:49:17.722Z,8.58
2023-03-25T07:51:45.766Z,8.40
2023-03-25T07:54:13.004Z,8.26
2023-03-25T07:56:40.408Z,8.00
2023-03-25T07:59:07.781Z,7.81
2023-03-25T08:01:35.582Z,7.63
2023-03-25T08:04:04.537Z,7.55
2023-03-25T08:06:32.224Z,7.44
2023-03-25T08:08:59.467Z,7.39
2023-03-25T08:11:26.687Z,7.39
2023-03-25T08:13:53.854Z,7.42
2023-03-25T08:16:21.141Z,7.47
2023-03-25T08:18:48.313Z,7.50
2023-03-25T08:21:17.326Z,7.48
2023-03-25T08:23:44.818Z,7.48
2023-03-25T08:26:11.964Z,7.53
2023-03-25T08:28:39.252Z,7.65
2023-03-25T08:31:08.467Z,7.86
2023-03-25T08:33:39.645Z,8.01
2023-03-25T08:36:10.663Z,8.19
2023-03-25T08:38:38.010Z,8.30
2023-03-25T08:41:05.264Z,8.30
2023-03-25T08:43:32.406Z,8.24
2023-03-25T08:45:59.729Z,8.23
2023-03-25T08:48:27.056Z,8.17
2023-03-25T08:50:54.287Z,8.10
2023-03-25T08:53:21.506Z,8.17
2023-03-25T08:55:53.452Z,8.24
2023-03-25T08:58:22.767Z,8.24
2023-03-25T09:00:54.372Z,8.18
2023-03-25T09:03:23.318Z,8.16
2023-03-25T09:05:51.121Z,8.12
2023-03-25T09:08:18.632Z,8.13
2023-03-25T09:10:45.917Z,8.21
2023-03-25T09:13:13.122Z,8.33
2023-03-25T09:15:40.498Z,8.44
2023-03-25T09:18:08.332Z,8.52
2023-03-25T09:20:35.794Z,8.62
2023-03-25T09:23:03.476Z,8.84
2023-03-25T09:25:30.773Z,9.00
2023-03-25T09:27:58.016Z,9.21
2023-03-25T09:30:25.687Z,9.35
2023-03-25T09:32:53.279Z,9.48
2023-03-25T09:35:20.692Z,9.61
2023-03-25T09:37:52.021Z,9.65
2023-03-25T09:40:21.999Z,9.68
2023-03-25T09:43:08.246Z,9.72
2023-03-25T09:45:42.344Z,9.87
2023-03-25T09:48:38.281Z,9.86
2023-03-25T09:51:10.897Z,9.84
2023-03-25T09:54:24.711Z,9.85
2023-03-25T09:56:53.246Z,9.74
2023-03-25T09:59:23.598Z,9.68
2023-03-25T10:02:26.822Z,9.54
2023-03-25T10:05:16.081Z,9.53
2023-03-25T10:07:56.408Z,9.54
2023-03-25T10:10:32.910Z,9.53
2023-03-25T10:13:03.160Z,9.49
2023-03-25T10:15:43.855Z,9.54
2023-03-25T10:18:29.634Z,9.82
2023-03-25T10:21:13.522Z,10.07
2023-03-25T10:24:15.786Z,10.32
2023-03-25T10:26:49.112Z,10.37
2023-03-25T10:29:21.970Z,10.20
2023-03-25T10:31:54.722Z,10.04
2023-03-25T10:34:46.767Z,9.91
2023-03-25T10:37:21.626Z,9.85
2023-03-25T10:39:49.967Z,9.78
2023-03-25T10:42:32.034Z,9.71
2023-03-25T10:44:59.244Z,9.68
2023-03-25T10:47:38.744Z,9.66
2023-03-25T10:50:06.978Z,9.60
2023-03-25T10:52:34.560Z,9.61
2023-03-25T10:55:02.261Z,9.73
2023-03-25T10:57:31.726Z,9.90
2023-03-25T11:00:02.186Z,9.98
2023-03-25T11:02:31.371Z,9.99
2023-03-25T11:05:07.813Z,9.96
2023-03-25T11:07:41.702Z,10.04
2023-03-25T11:10:17.918Z,10.07
2023-03-25T11:12:46.737Z,10.05
2023-03-25T11:15:35.536Z,10.01
2023-03-25T11:18:12.466Z,10.03
2023-03-25T11:20:46.122Z,10.13
2023-03-25T11:23:28.073Z,10.20
2023-03-25T11:26:04.009Z,10.26
2023-03-25T11:28:45.004Z,10.35
2023-03-25T11:31:26.351Z,10.46
2023-03-25T11:34:09.113Z,10.38
2023-03-25T11:36:40.405Z,10.33
2023-03-25T11:39:23.671Z,10.38
2023-03-25T11:41:52.107Z,10.44
2023-03-25T11:44:29.825Z,10.44
2023-03-25T11:47:04.460Z,10.43
2023-03-25T11:49:37.586Z,10.46
2023-03-25T11:52:09.509Z,10.49
2023-03-25T11:54:37.647Z,10.54
2023-03-25T11:57:11.184Z,10.57
2023-03-25T11:59:49.798Z,10.62
2023-03-25T12:02:38.378Z,10.79
2023-03-25T12:05:08.663Z,10.93
2023-03-25T12:08:15.112Z,10.99
2023-03-25T12:10:51.591Z,11.08
2023-03-25T12:13:37.538Z,11.20
2023-03-25T12:16:40.709Z,11.30
2023-03-25T12:19:23.067Z,11.31
2023-03-25T12:21:56.408Z,11.23
2023-03-25T12:25:01.484Z,11.18
2023-03-25T12:28:21.791Z,11.08
2023-03-25T12:31:09.047Z,10.92
2023-03-25T12:34:03.881Z,10.66
2023-03-25T12:36:38.861Z,10.69
2023-03-25T12:39:39.628Z,10.68
2023-03-25T12:42:10.022Z,10.71
2023-03-25T12:44:40.507Z,10.69
2023-03-25T12:47:23.572Z,10.65
2023-03-25T12:50:11.720Z,10.60
2023-03-25T12:53:01.622Z,10.48
2023-03-25T12:55:28.945Z,10.35
2023-03-25T12:57:59.211Z,10.23
2023-03-25T13:00:54.827Z,10.17
2023-03-25T13:04:07.312Z,10.14
2023-03-25T13:06:46.512Z,10.18
2023-03-25T13:09:38.026Z,10.23
2023-03-25T13:12:33.654Z,10.16
2023-03-25T13:15:21.902Z,10.13
2023-03-25T13:18:09.456Z,10.02
2023-03-25T13:20:46.664Z,9.87
2023-03-25T13:23:17.837Z,9.72
2023-03-25T13:25:54.318Z,9.63
2023-03-25T13:28:26.269Z,9.51
2023-03-25T13:30:55.434Z,9.42
2023-03-25T13:33:31.411Z,9.17
2023-03-25T13:36:32.225Z,9.02
2023-03-25T13:39:06.621Z,8.79
2023-03-25T13:41:44.417Z,8.68
2023-03-25T13:44:19.983Z,8.61
2023-03-25T13:46:52.711Z,8.53
2023-03-25T13:49:43.698Z,8.47
2023-03-25T13:52:14.321Z,8.45
2023-03-25T13:54:56.511Z,8.44
2023-03-25T13:57:26.813Z,8.45
2023-03-25T14:00:28.949Z,8.50
2023-03-25T14:02:56.699Z,8.50
2023-03-25T14:05:36.170Z,8.49
2023-03-25T14:08:13.550Z,8.46
2023-03-25T14:10:54.042Z,8.40
2023-03-25T14:13:30.328Z,8.31
2023-03-25T14:16:10.312Z,8.19
2023-03-25T14:18:52.614Z,8.13
2023-03-25T14:21:41.453Z,8.02
2023-03-25T14:24:17.677Z,7.94
2023-03-25T14:27:00.432Z,7.91
2023-03-25T14:30:00.811Z,7.86
2023-03-25T14:32:40.331Z,7.87
2023-03-25T14:35:38.650Z,7.96
2023-03-25T14:38:06.071Z,8.10
2023-03-25T14:40:55.483Z,8.20
2023-03-25T14:43:40.426Z,8.30
2023-03-25T14:46:10.697Z,8.36
2023-03-25T14:48:49.101Z,8.44
2023-03-25T14:51:30.787Z,8.51
2023-03-25T14:54:05.766Z,8.53
2023-03-25T14:56:52.323Z,8.51
2023-03-25T14:59:25.306Z,8.49
2023-03-25T15:01:53.478Z,8.50
2023-03-25T15:04:30.012Z,8.47
2023-03-25T15:06:59.572Z,8.42
2023-03-25T15:09:29.903Z,8.36
2023-03-25T15:12:03.932Z,8.28
2023-03-25T15:14:38.953Z,8.22
2023-03-25T15:17:11.214Z,8.18
2023-03-25T15:20:12.138Z,8.15
2023-03-25T15:22:39.329Z,8.12
2023-03-25T15:25:19.986Z,8.11
2023-03-25T15:28:05.788Z,8.11
2023-03-25T15:30:42.020Z,8.13
2023-03-25T15:33:24.654Z,8.15
2023-03-25T15:35:56.331Z,8.14
2023-03-25T15:38:48.477Z,8.15
2023-03-25T15:41:15.937Z,8.18
2023-03-25T15:43:54.025Z,8.18
2023-03-25T15:46:46.514Z,8.14
2023-03-25T15:49:32.013Z,8.14
2023-03-25T15:52:12.172Z,8.12
2023-03-25T15:54:52.206Z,8.12
2023-03-25T15:57:19.535Z,8.14
2023-03-25T16:00:13.448Z,8.12
2023-03-25T16:02:59.646Z,8.11
2023-03-25T16:05:27.873Z,8.15
2023-03-25T16:07:59.130Z,8.16
2023-03-25T16:10:36.475Z,8.16
2023-03-25T16:13:24.160Z,8.15
2023-03-25T16:15:55.236Z,8.13
2023-03-25T16:18:24.238Z,8.11
2023-03-25T16:21:00.964Z,8.12
2023-03-25T16:23:30.781Z,8.11
2023-03-25T16:25:58.062Z,8.12
2023-03-25T16:28:33.815Z,8.14
2023-03-25T16:31:03.042Z,8.15
2023-03-25T16:33:37.159Z,8.17
2023-03-25T16:36:31.244Z,8.17
2023-03-25T16:38:58.637Z,8.16
2023-03-25T16:41:26.094Z,8.15
2023-03-25T16:43:54.926Z,8.16
2023-03-25T16:46:23.539Z,8.13
2023-03-25T16:48:54.180Z,8.14
2023-03-25T16:51:25.570Z,8.12
2023-03-25T16:53:56.010Z,8.09
2023-03-25T16:56:27.720Z,8.04
2023-03-25T16:59:05.617Z,8.02
2023-03-25T17:01:42.732Z,8.04
2023-03-25T17:04:22.751Z,8.02
2023-03-25T17:06:53.372Z,7.99
2023-03-25T17:09:35.252Z,7.96
2023-03-25T17:12:08.699Z,7.94
2023-03-25T17:14:42.911Z,7.93
2023-03-25T17:17:17.808Z,7.91
2023-03-25T17:19:48.274Z,7.91
2023-03-25T17:22:30.022Z,7.84
2023-03-25T17:24:59.450Z,7.84
2023-03-25T17:27:38.733Z,7.81
2023-03-25T17:30:41.792Z,7.77
2023-03-25T17:33:31.555Z,7.78
2023-03-25T17:35:59.219Z,7.75
2023-03-25T17:38:28.556Z,7.73
2023-03-25T17:41:07.539Z,7.70
2023-03-25T17:43:42.639Z,7.69
2023-03-25T17:46:10.862Z,7.68
2023-03-25T17:48:38.208Z,7.68
2023-03-25T17:51:05.734Z,7.68
2023-03-25T17:53:33.134Z,7.68
2023-03-25T17:56:03.515Z,7.68
2023-03-25T17:58:31.117Z,7.67
2023-03-25T18:00:59.352Z,7.67
2023-03-25T18:03:28.272Z,7.67
2023-03-25T18:05:55.794Z,7.66
2023-03-25T18:08:25.174Z,7.65
2023-03-25T18:10:54.261Z,7.64
2023-03-25T18:13:24.793Z,7.61
2023-03-25T18:15:53.644Z,7.63
2023-03-25T18:18:24.873Z,7.61
2023-03-25T18:20:56.043Z,7.61
2023-03-25T18:23:26.929Z,7.61
2023-03-25T18:25:54.271Z,7.60
2023-03-25T18:28:21.866Z,7.59
2023-03-25T18:30:59.561Z,7.59
2023-03-25T18:33:28.755Z,7.59
2023-03-25T18:35:59.473Z,7.59
2023-03-25T18:38:27.860Z,7.59
2023-03-25T18:40:56.738Z,7.55
2023-03-25T18:43:24.097Z,7.51
2023-03-25T18:45:51.827Z,7.52
2023-03-25T18:48:21.490Z,7.49
2023-03-25T18:50:54.804Z,7.46
2023-03-25T18:53:27.469Z,7.46
2023-03-25T18:56:00.843Z,7.44
2023-03-25T18:58:31.282Z,7.42
2023-03-25T19:01:03.375Z,7.39
2023-03-25T19:03:31.830Z,7.37
2023-03-25T19:06:00.613Z,7.37
2023-03-25T19:08:28.756Z,7.36
2023-03-25T19:11:04.566Z,7.37
2023-03-25T19:13:40.026Z,7.36
2023-03-25T19:16:10.962Z,7.35
2023-03-25T19:18:38.234Z,7.35
2023-03-25T19:21:07.300Z,7.34
2023-03-25T19:23:35.470Z,7.33
2023-03-25T19:26:03.893Z,7.30
2023-03-25T19:28:31.146Z,7.31
2023-03-25T19:31:03.272Z,7.29
2023-03-25T19:33:31.478Z,7.30
2023-03-25T19:36:02.343Z,7.31
2023-03-25T19:38:33.212Z,7.31
2023-03-25T19:41:09.292Z,7.32
2023-03-25T19:43:36.767Z,7.33
2023-03-25T19:46:05.644Z,7.34
2023-03-25T19:48:34.061Z,7.34
2023-03-25T19:51:04.103Z,7.33
2023-03-25T19:53:31.621Z,7.33
2023-03-25T19:56:04.728Z,7.34
2023-03-25T19:58:32.681Z,7.35
2023-03-25T20:01:00.015Z,7.36
2023-03-25T20:03:31.384Z,7.36
2023-03-25T20:06:03.638Z,7.37
2023-03-25T20:08:31.962Z,7.38
2023-03-25T20:10:59.494Z,7.36
2023-03-25T20:13:27.025Z,7.36
2023-03-25T20:15:54.735Z,7.32
2023-03-25T20:18:22.243Z,7.29
2023-03-25T20:20:49.486Z,7.26
2023-03-25T20:23:16.939Z,7.25
2023-03-25T20:25:44.488Z,7.24
2023-03-25T20:28:11.829Z,7.24
2023-03-25T20:30:39.855Z,7.20
2023-03-25T20:33:07.165Z,7.20
2023-03-25T20:35:34.861Z,7.21
2023-03-25T20:38:03.348Z,7.19
2023-03-25T20:40:41.579Z,7.18
2023-03-25T20:43:14.040Z,7.15
2023-03-25T20:45:42.959Z,7.10
2023-03-25T20:48:10.825Z,7.05
2023-03-25T20:50:38.666Z,6.99
2023-03-25T20:53:06.334Z,6.94
2023-03-25T20:55:34.016Z,6.90
2023-03-25T20:58:04.163Z,6.87
2023-03-25T21:00:31.976Z,6.79
2023-03-25T21:02:59.399Z,6.78
2023-03-25T21:05:28.048Z,6.76
2023-03-25T21:07:55.533Z,6.75
2023-03-25T21:10:22.781Z,6.77
2023-03-25T21:12:50.173Z,6.77
2023-03-25T21:15:18.092Z,6.79
2023-03-25T21:17:45.633Z,6.78
2023-03-25T21:20:13.034Z,6.80
2023-03-25T21:22:45.321Z,6.82
2023-03-25T21:25:14.791Z,6.85
2023-03-25T21:27:45.358Z,6.85
2023-03-25T21:30:14.132Z,6.86
2023-03-25T21:32:42.233Z,6.88
2023-03-25T21:35:09.918Z,6.90
2023-03-25T21:37:38.883Z,6.91
2023-03-25T21:40:10.289Z,6.92
2023-03-25T21:42:38.828Z,6.94
2023-03-25T21:45:07.898Z,6.96
2023-03-25T21:47:36.450Z,6.97
2023-03-25T21:50:07.661Z,6.98
2023-03-25T21:52:35.972Z,7.00
2023-03-25T21:55:03.925Z,7.01
2023-03-25T21:57:31.195Z,7.03
2023-03-25T21:59:58.585Z,7.04
2023-03-25T22:02:29.155Z,7.04
2023-03-25T22:04:56.360Z,7.05
2023-03-25T22:07:23.738Z,7.05
2023-03-25T22:09:52.495Z,7.06
2023-03-25T22:12:19.740Z,7.06
2023-03-25T22:14:47.622Z,7.06
2023-03-25T22:17:15.160Z,7.06
2023-03-25T22:19:42.516Z,7.05
2023-03-25T22:22:12.110Z,7.05
2023-03-25T22:24:39.491Z,7.05
2023-03-25T22:27:06.881Z,7.06
2023-03-25T22:29:34.348Z,7.05
2023-03-25T22:32:07.861Z,7.03
2023-03-25T22:34:35.485Z,7.03
2023-03-25T22:37:04.439Z,7.05
2023-03-25T22:39:31.728Z,7.04
2023-03-25T22:41:59.193Z,7.02
2023-03-25T22:44:26.623Z,7.01
2023-03-25T22:46:53.851Z,6.98
2023-03-25T22:49:21.862Z,6.99
2023-03-25T22:51:51.142Z,6.96
2023-03-25T22:54:18.611Z,6.95
2023-03-25T22:56:45.992Z,6.95
2023-03-25T22:59:14.601Z,6.94
2023-03-25T23:01:43.340Z,6.91
2023-03-25T23:04:10.892Z,6.90
2023-03-25T23:06:38.670Z,6.90
2023-03-25T23:09:08.600Z,6.90
2023-03-25T23:11:36.924Z,6.89
2023-03-25T23:14:13.355Z,6.88
2023-03-25T23:16:41.815Z,6.85
2023-03-25T23:19:10.278Z,6.83
2023-03-25T23:21:40.814Z,6.78
2023-03-25T23:24:08.576Z,6.77
2023-03-25T23:26:38.925Z,6.74
2023-03-25T23:29:10.426Z,6.73
2023-03-25T23:31:43.081Z,6.72
2023-03-25T23:34:14.544Z,6.71
2023-03-25T23:36:42.460Z,6.70
2023-03-25T23:39:13.618Z,6.68
2023-03-25T23:41:41.366Z,6.67
2023-03-25T23:44:08.613Z,6.67
2023-03-25T23:46:36.212Z,6.66
2023-03-25T23:49:05.799Z,6.64
2023-03-25T23:51:36.765Z,6.64
2023-03-25T23:54:06.007Z,6.64
2023-03-25T23:56:33.632Z,6.62
2023-03-25T23:59:03.676Z,6.65
